sensor_id;sensor_type;location;lat;lon;timestamp;P1;durP1;ratioP1;P2;durP2;ratioP2
14754;SDS011;7469;50.906;6.952;2023-04-15T00:01:09;5.03;;;2.90;;
14754;SDS011;7469;50.906;6.952;2023-04-15T00:03:37;4.57;;;3.17;;
14754;SDS011;7469;50.906;6.952;2023-04-15T00:06:05;6.90;;;2.90;;
14754;SDS011;7469;50.906;6.952;2023-04-15T00:08:33;9.20;;;2.77;;
14754;SDS011;7469;50.906;6.952;2023-04-15T00:11:01;8.63;;;2.73;;
14754;SDS011;7469;50.906;6.952;2023-04-15T00:13:31;6.57;;;2.80;;
14754;SDS011;7469;50.906;6.952;2023-04-15T00:15:59;5.70;;;2.67;;
14754;SDS011;7469;50.906;6.952;2023-04-15T00:18:28;5.47;;;2.90;;
14754;SDS011;7469;50.906;6.952;2023-04-15T00:20:56;5.70;;;3.00;;
14754;SDS011;7469;50.906;6.952;2023-04-15T00:23:25;8.63;;;2.83;;
14754;SDS011;7469;50.906;6.952;2023-04-15T00:25:53;5.17;;;2.57;;
14754;SDS011;7469;50.906;6.952;2023-04-15T00:28:21;5.73;;;2.90;;
14754;SDS011;7469;50.906;6.952;2023-04-15T00:30:49;6.63;;;2.70;;
14754;SDS011;7469;50.906;6.952;2023-04-15T00:33:17;8.13;;;2.70;;
14754;SDS011;7469;50.906;6.952;2023-04-15T00:35:46;5.90;;;3.07;;
14754;SDS011;7469;50.906;6.952;2023-04-15T00:38:15;4.83;;;3.30;;
14754;SDS011;7469;50.906;6.952;2023-04-15T00:40:43;6.80;;;3.17;;
14754;SDS011;7469;50.906;6.952;2023-04-15T00:43:11;5.67;;;2.90;;
14754;SDS011;7469;50.906;6.952;2023-04-15T00:45:39;6.47;;;3.37;;
14754;SDS011;7469;50.906;6.952;2023-04-15T00:48:07;6.77;;;3.27;;
14754;SDS011;7469;50.906;6.952;2023-04-15T00:50:35;7.77;;;3.00;;
14754;SDS011;7469;50.906;6.952;2023-04-15T00:53:05;8.33;;;3.40;;
14754;SDS011;7469;50.906;6.952;2023-04-15T00:55:33;5.53;;;3.00;;
14754;SDS011;7469;50.906;6.952;2023-04-15T00:58:01;8.00;;;3.10;;
14754;SDS011;7469;50.906;6.952;2023-04-15T01:00:29;5.93;;;3.00;;
14754;SDS011;7469;50.906;6.952;2023-04-15T01:02:57;8.17;;;3.20;;
14754;SDS011;7469;50.906;6.952;2023-04-15T01:05:25;5.07;;;2.77;;
14754;SDS011;7469;50.906;6.952;2023-04-15T01:07:54;6.27;;;2.90;;
14754;SDS011;7469;50.906;6.952;2023-04-15T01:10:23;7.13;;;3.20;;
14754;SDS011;7469;50.906;6.952;2023-04-15T01:12:52;4.37;;;2.73;;
14754;SDS011;7469;50.906;6.952;2023-04-15T01:15:20;5.33;;;2.80;;
14754;SDS011;7469;50.906;6.952;2023-04-15T01:17:48;8.00;;;3.37;;
14754;SDS011;7469;50.906;6.952;2023-04-15T01:20:17;5.17;;;2.90;;
14754;SDS011;7469;50.906;6.952;2023-04-15T01:22:45;4.50;;;2.90;;
14754;SDS011;7469;50.906;6.952;2023-04-15T01:25:15;4.63;;;2.80;;
14754;SDS011;7469;50.906;6.952;2023-04-15T01:27:46;6.33;;;3.00;;
14754;SDS011;7469;50.906;6.952;2023-04-15T01:30:14;7.80;;;2.67;;
14754;SDS011;7469;50.906;6.952;2023-04-15T01:32:42;7.50;;;2.60;;
14754;SDS011;7469;50.906;6.952;2023-04-15T01:35:10;7.17;;;3.03;;
14754;SDS011;7469;50.906;6.952;2023-04-15T01:37:38;5.77;;;2.63;;
14754;SDS011;7469;50.906;6.952;2023-04-15T01:40:07;5.27;;;3.10;;
14754;SDS011;7469;50.906;6.952;2023-04-15T01:42:35;3.63;;;2.40;;
14754;SDS011;7469;50.906;6.952;2023-04-15T01:45:05;7.63;;;3.07;;
14754;SDS011;7469;50.906;6.952;2023-04-15T01:47:34;3.80;;;2.47;;
14754;SDS011;7469;50.906;6.952;2023-04-15T01:50:03;5.30;;;2.63;;
14754;SDS011;7469;50.906;6.952;2023-04-15T01:52:32;4.47;;;2.17;;
14754;SDS011;7469;50.906;6.952;2023-04-15T01:55:00;6.00;;;2.70;;
14754;SDS011;7469;50.906;6.952;2023-04-15T01:57:28;3.83;;;2.47;;
14754;SDS011;7469;50.906;6.952;2023-04-15T01:59:56;7.43;;;2.60;;
14754;SDS011;7469;50.906;6.952;2023-04-15T02:02:25;3.37;;;2.10;;
14754;SDS011;7469;50.906;6.952;2023-04-15T02:04:53;4.27;;;2.37;;
14754;SDS011;7469;50.906;6.952;2023-04-15T02:07:21;7.90;;;2.57;;
14754;SDS011;7469;50.906;6.952;2023-04-15T02:09:49;4.83;;;2.30;;
14754;SDS011;7469;50.906;6.952;2023-04-15T02:12:17;4.30;;;2.40;;
14754;SDS011;7469;50.906;6.952;2023-04-15T02:14:45;6.47;;;2.47;;
14754;SDS011;7469;50.906;6.952;2023-04-15T02:17:13;4.73;;;2.47;;
14754;SDS011;7469;50.906;6.952;2023-04-15T02:19:42;5.00;;;2.50;;
14754;SDS011;7469;50.906;6.952;2023-04-15T02:22:10;4.20;;;2.07;;
14754;SDS011;7469;50.906;6.952;2023-04-15T02:24:43;4.60;;;2.20;;
14754;SDS011;7469;50.906;6.952;2023-04-15T02:27:14;5.47;;;2.20;;
14754;SDS011;7469;50.906;6.952;2023-04-15T02:29:43;4.33;;;2.53;;
14754;SDS011;7469;50.906;6.952;2023-04-15T02:32:11;4.77;;;2.60;;
14754;SDS011;7469;50.906;6.952;2023-04-15T02:34:40;6.03;;;2.47;;
14754;SDS011;7469;50.906;6.952;2023-04-15T02:37:09;7.63;;;2.30;;
14754;SDS011;7469;50.906;6.952;2023-04-15T02:39:38;6.83;;;2.33;;
14754;SDS011;7469;50.906;6.952;2023-04-15T02:42:06;8.83;;;2.40;;
14754;SDS011;7469;50.906;6.952;2023-04-15T02:44:34;3.90;;;2.30;;
14754;SDS011;7469;50.906;6.952;2023-04-15T02:47:02;7.20;;;2.43;;
14754;SDS011;7469;50.906;6.952;2023-04-15T02:49:32;3.67;;;2.47;;
14754;SDS011;7469;50.906;6.952;2023-04-15T02:52:00;4.97;;;2.30;;
14754;SDS011;7469;50.906;6.952;2023-04-15T02:54:29;3.10;;;2.37;;
14754;SDS011;7469;50.906;6.952;2023-04-15T02:56:59;5.00;;;2.40;;
14754;SDS011;7469;50.906;6.952;2023-04-15T02:59:27;5.07;;;2.07;;
14754;SDS011;7469;50.906;6.952;2023-04-15T03:01:55;3.43;;;2.50;;
14754;SDS011;7469;50.906;6.952;2023-04-15T03:04:26;6.63;;;2.20;;
14754;SDS011;7469;50.906;6.952;2023-04-15T03:06:55;4.07;;;2.57;;
14754;SDS011;7469;50.906;6.952;2023-04-15T03:09:23;4.93;;;2.47;;
14754;SDS011;7469;50.906;6.952;2023-04-15T03:11:53;6.10;;;2.20;;
14754;SDS011;7469;50.906;6.952;2023-04-15T03:14:22;7.00;;;2.30;;
14754;SDS011;7469;50.906;6.952;2023-04-15T03:16:50;7.47;;;2.30;;
14754;SDS011;7469;50.906;6.952;2023-04-15T03:19:18;5.97;;;2.80;;
14754;SDS011;7469;50.906;6.952;2023-04-15T03:21:46;4.00;;;2.70;;
14754;SDS011;7469;50.906;6.952;2023-04-15T03:24:14;4.63;;;2.30;;
14754;SDS011;7469;50.906;6.952;2023-04-15T03:26:41;6.77;;;3.03;;
14754;SDS011;7469;50.906;6.952;2023-04-15T03:29:11;6.73;;;2.63;;
14754;SDS011;7469;50.906;6.952;2023-04-15T03:31:39;4.77;;;2.53;;
14754;SDS011;7469;50.906;6.952;2023-04-15T03:34:07;4.50;;;2.10;;
14754;SDS011;7469;50.906;6.952;2023-04-15T03:36:35;5.43;;;2.07;;
14754;SDS011;7469;50.906;6.952;2023-04-15T03:39:03;6.10;;;2.60;;
14754;SDS011;7469;50.906;6.952;2023-04-15T03:41:31;3.03;;;2.40;;
14754;SDS011;7469;50.906;6.952;2023-04-15T03:43:59;5.13;;;2.70;;
14754;SDS011;7469;50.906;6.952;2023-04-15T03:46:28;8.43;;;2.80;;
14754;SDS011;7469;50.906;6.952;2023-04-15T03:48:56;5.30;;;2.67;;
14754;SDS011;7469;50.906;6.952;2023-04-15T03:51:24;5.10;;;2.13;;
14754;SDS011;7469;50.906;6.952;2023-04-15T03:53:52;4.67;;;2.60;;
14754;SDS011;7469;50.906;6.952;2023-04-15T03:56:21;2.73;;;2.20;;
14754;SDS011;7469;50.906;6.952;2023-04-15T03:58:49;5.63;;;2.80;;
14754;SDS011;7469;50.906;6.952;2023-04-15T04:01:17;6.63;;;2.37;;
14754;SDS011;7469;50.906;6.952;2023-04-15T04:03:46;6.13;;;2.73;;
14754;SDS011;7469;50.906;6.952;2023-04-15T04:06:15;3.90;;;2.07;;
14754;SDS011;7469;50.906;6.952;2023-04-15T04:08:42;5.17;;;2.27;;
14754;SDS011;7469;50.906;6.952;2023-04-15T04:11:10;3.60;;;2.17;;
14754;SDS011;7469;50.906;6.952;2023-04-15T04:13:38;4.47;;;2.30;;
14754;SDS011;7469;50.906;6.952;2023-04-15T04:16:07;4.50;;;2.50;;
14754;SDS011;7469;50.906;6.952;2023-04-15T04:18:35;4.93;;;2.67;;
14754;SDS011;7469;50.906;6.952;2023-04-15T04:21:04;3.93;;;2.40;;
14754;SDS011;7469;50.906;6.952;2023-04-15T04:23:32;7.27;;;2.57;;
14754;SDS011;7469;50.906;6.952;2023-04-15T04:26:00;5.37;;;2.80;;
14754;SDS011;7469;50.906;6.952;2023-04-15T04:28:28;5.57;;;2.20;;
14754;SDS011;7469;50.906;6.952;2023-04-15T04:30:56;5.97;;;2.53;;
14754;SDS011;7469;50.906;6.952;2023-04-15T04:33:24;4.60;;;2.43;;
14754;SDS011;7469;50.906;6.952;2023-04-15T04:35:52;5.73;;;2.73;;
14754;SDS011;7469;50.906;6.952;2023-04-15T04:38:22;4.03;;;2.43;;
14754;SDS011;7469;50.906;6.952;2023-04-15T04:40:50;3.87;;;2.47;;
14754;SDS011;7469;50.906;6.952;2023-04-15T04:43:18;5.10;;;2.37;;
14754;SDS011;7469;50.906;6.952;2023-04-15T04:45:45;3.00;;;2.23;;
14754;SDS011;7469;50.906;6.952;2023-04-15T04:48:13;7.30;;;2.80;;
14754;SDS011;7469;50.906;6.952;2023-04-15T04:50:42;4.33;;;2.27;;
14754;SDS011;7469;50.906;6.952;2023-04-15T04:53:12;3.43;;;2.20;;
14754;SDS011;7469;50.906;6.952;2023-04-15T04:55:42;4.17;;;2.37;;
14754;SDS011;7469;50.906;6.952;2023-04-15T04:58:10;3.43;;;2.37;;
14754;SDS011;7469;50.906;6.952;2023-04-15T05:00:39;5.57;;;2.47;;
14754;SDS011;7469;50.906;6.952;2023-04-15T05:03:07;3.83;;;2.13;;
14754;SDS011;7469;50.906;6.952;2023-04-15T05:05:35;5.13;;;2.40;;
14754;SDS011;7469;50.906;6.952;2023-04-15T05:08:04;4.30;;;2.40;;
14754;SDS011;7469;50.906;6.952;2023-04-15T05:10:32;7.80;;;2.43;;
14754;SDS011;7469;50.906;6.952;2023-04-15T05:13:02;8.43;;;2.87;;
14754;SDS011;7469;50.906;6.952;2023-04-15T05:15:29;4.90;;;2.63;;
14754;SDS011;7469;50.906;6.952;2023-04-15T05:17:58;5.63;;;2.40;;
14754;SDS011;7469;50.906;6.952;2023-04-15T05:20:26;6.17;;;2.67;;
14754;SDS011;7469;50.906;6.952;2023-04-15T05:22:54;6.80;;;2.30;;
14754;SDS011;7469;50.906;6.952;2023-04-15T05:25:22;6.47;;;2.87;;
14754;SDS011;7469;50.906;6.952;2023-04-15T05:27:50;6.67;;;2.60;;
14754;SDS011;7469;50.906;6.952;2023-04-15T05:30:19;4.60;;;2.20;;
14754;SDS011;7469;50.906;6.952;2023-04-15T05:32:47;10.13;;;2.67;;
14754;SDS011;7469;50.906;6.952;2023-04-15T05:35:15;4.37;;;2.70;;
14754;SDS011;7469;50.906;6.952;2023-04-15T05:37:44;4.80;;;2.60;;
14754;SDS011;7469;50.906;6.952;2023-04-15T05:40:12;9.17;;;2.37;;
14754;SDS011;7469;50.906;6.952;2023-04-15T05:42:40;3.77;;;2.30;;
14754;SDS011;7469;50.906;6.952;2023-04-15T05:45:09;3.53;;;2.63;;
14754;SDS011;7469;50.906;6.952;2023-04-15T05:47:39;3.63;;;2.50;;
14754;SDS011;7469;50.906;6.952;2023-04-15T05:50:07;6.63;;;2.73;;
14754;SDS011;7469;50.906;6.952;2023-04-15T05:52:35;7.17;;;2.80;;
14754;SDS011;7469;50.906;6.952;2023-04-15T05:55:03;4.07;;;2.60;;
14754;SDS011;7469;50.906;6.952;2023-04-15T05:57:32;4.33;;;2.30;;
14754;SDS011;7469;50.906;6.952;2023-04-15T05:59:59;3.10;;;2.40;;
14754;SDS011;7469;50.906;6.952;2023-04-15T06:02:27;6.53;;;2.73;;
14754;SDS011;7469;50.906;6.952;2023-04-15T06:04:57;6.70;;;2.77;;
14754;SDS011;7469;50.906;6.952;2023-04-15T06:07:26;6.57;;;2.53;;
14754;SDS011;7469;50.906;6.952;2023-04-15T06:09:54;9.70;;;2.90;;
14754;SDS011;7469;50.906;6.952;2023-04-15T06:12:22;11.00;;;3.17;;
14754;SDS011;7469;50.906;6.952;2023-04-15T06:14:50;8.97;;;2.60;;
14754;SDS011;7469;50.906;6.952;2023-04-15T06:17:17;4.27;;;2.80;;
14754;SDS011;7469;50.906;6.952;2023-04-15T06:19:45;7.13;;;2.60;;
14754;SDS011;7469;50.906;6.952;2023-04-15T06:22:16;11.60;;;2.67;;
14754;SDS011;7469;50.906;6.952;2023-04-15T06:24:44;6.67;;;2.57;;
14754;SDS011;7469;50.906;6.952;2023-04-15T06:27:12;5.67;;;2.70;;
14754;SDS011;7469;50.906;6.952;2023-04-15T06:29:40;8.20;;;3.33;;
14754;SDS011;7469;50.906;6.952;2023-04-15T06:32:08;5.87;;;2.60;;
14754;SDS011;7469;50.906;6.952;2023-04-15T06:34:37;8.60;;;3.00;;
14754;SDS011;7469;50.906;6.952;2023-04-15T06:37:05;6.50;;;3.57;;
14754;SDS011;7469;50.906;6.952;2023-04-15T06:39:34;5.40;;;2.70;;
14754;SDS011;7469;50.906;6.952;2023-04-15T06:42:02;5.53;;;3.03;;
14754;SDS011;7469;50.906;6.952;2023-04-15T06:44:30;6.90;;;3.23;;
14754;SDS011;7469;50.906;6.952;2023-04-15T06:46:59;9.23;;;3.23;;
14754;SDS011;7469;50.906;6.952;2023-04-15T06:49:27;8.13;;;3.13;;
14754;SDS011;7469;50.906;6.952;2023-04-15T06:51:55;7.00;;;3.10;;
14754;SDS011;7469;50.906;6.952;2023-04-15T06:54:23;4.50;;;3.30;;
14754;SDS011;7469;50.906;6.952;2023-04-15T06:56:53;7.30;;;3.30;;
14754;SDS011;7469;50.906;6.952;2023-04-15T06:59:21;5.13;;;3.33;;
14754;SDS011;7469;50.906;6.952;2023-04-15T07:01:49;8.37;;;3.53;;
14754;SDS011;7469;50.906;6.952;2023-04-15T07:04:17;5.83;;;3.37;;
14754;SDS011;7469;50.906;6.952;2023-04-15T07:06:45;4.20;;;2.97;;
14754;SDS011;7469;50.906;6.952;2023-04-15T07:09:13;8.63;;;3.40;;
14754;SDS011;7469;50.906;6.952;2023-04-15T07:11:41;6.33;;;3.50;;
14754;SDS011;7469;50.906;6.952;2023-04-15T07:14:10;8.40;;;3.83;;
14754;SDS011;7469;50.906;6.952;2023-04-15T07:16:38;8.37;;;3.47;;
14754;SDS011;7469;50.906;6.952;2023-04-15T07:19:07;5.93;;;3.40;;
14754;SDS011;7469;50.906;6.952;2023-04-15T07:21:35;7.63;;;3.73;;
14754;SDS011;7469;50.906;6.952;2023-04-15T07:24:05;6.47;;;3.60;;
14754;SDS011;7469;50.906;6.952;2023-04-15T07:26:35;8.97;;;3.60;;
14754;SDS011;7469;50.906;6.952;2023-04-15T07:29:03;6.27;;;3.77;;
14754;SDS011;7469;50.906;6.952;2023-04-15T07:31:33;7.13;;;3.60;;
14754;SDS011;7469;50.906;6.952;2023-04-15T07:34:02;5.60;;;3.63;;
14754;SDS011;7469;50.906;6.952;2023-04-15T07:36:30;7.67;;;4.13;;
14754;SDS011;7469;50.906;6.952;2023-04-15T07:38:58;6.03;;;4.00;;
14754;SDS011;7469;50.906;6.952;2023-04-15T07:41:27;7.53;;;4.27;;
14754;SDS011;7469;50.906;6.952;2023-04-15T07:43:55;4.83;;;4.23;;
14754;SDS011;7469;50.906;6.952;2023-04-15T07:46:24;6.33;;;4.33;;
14754;SDS011;7469;50.906;6.952;2023-04-15T07:48:54;7.00;;;4.30;;
14754;SDS011;7469;50.906;6.952;2023-04-15T07:51:22;6.67;;;4.30;;
14754;SDS011;7469;50.906;6.952;2023-04-15T07:53:50;5.40;;;3.87;;
14754;SDS011;7469;50.906;6.952;2023-04-15T07:56:19;3.97;;;3.53;;
14754;SDS011;7469;50.906;6.952;2023-04-15T07:58:47;4.50;;;3.37;;
14754;SDS011;7469;50.906;6.952;2023-04-15T08:01:15;4.40;;;3.70;;
14754;SDS011;7469;50.906;6.952;2023-04-15T08:03:43;6.57;;;3.80;;
14754;SDS011;7469;50.906;6.952;2023-04-15T08:06:12;4.33;;;3.70;;
14754;SDS011;7469;50.906;6.952;2023-04-15T08:08:40;6.67;;;3.67;;
14754;SDS011;7469;50.906;6.952;2023-04-15T08:11:09;4.57;;;3.43;;
14754;SDS011;7469;50.906;6.952;2023-04-15T08:13:37;5.03;;;3.60;;
14754;SDS011;7469;50.906;6.952;2023-04-15T08:16:17;3.53;;;3.10;;
14754;SDS011;7469;50.906;6.952;2023-04-15T08:18:47;5.47;;;2.90;;
14754;SDS011;7469;50.906;6.952;2023-04-15T08:21:17;6.13;;;3.20;;
14754;SDS011;7469;50.906;6.952;2023-04-15T08:23:46;4.77;;;3.10;;
14754;SDS011;7469;50.906;6.952;2023-04-15T08:26:15;3.07;;;2.63;;
14754;SDS011;7469;50.906;6.952;2023-04-15T08:28:44;3.13;;;2.57;;
14754;SDS011;7469;50.906;6.952;2023-04-15T08:31:13;3.53;;;2.40;;
14754;SDS011;7469;50.906;6.952;2023-04-15T08:33:42;1.83;;;1.73;;
14754;SDS011;7469;50.906;6.952;2023-04-15T08:36:10;2.70;;;1.80;;
14754;SDS011;7469;50.906;6.952;2023-04-15T08:38:40;2.03;;;1.30;;
14754;SDS011;7469;50.906;6.952;2023-04-15T08:41:11;1.70;;;1.60;;
14754;SDS011;7469;50.906;6.952;2023-04-15T08:43:48;2.30;;;1.63;;
14754;SDS011;7469;50.906;6.952;2023-04-15T08:46:19;2.37;;;1.40;;
14754;SDS011;7469;50.906;6.952;2023-04-15T08:48:48;1.70;;;1.33;;
14754;SDS011;7469;50.906;6.952;2023-04-15T08:51:17;1.80;;;1.47;;
14754;SDS011;7469;50.906;6.952;2023-04-15T08:53:46;1.83;;;1.13;;
14754;SDS011;7469;50.906;6.952;2023-04-15T08:56:16;1.77;;;1.13;;
14754;SDS011;7469;50.906;6.952;2023-04-15T08:58:45;1.70;;;1.60;;
14754;SDS011;7469;50.906;6.952;2023-04-15T09:01:14;3.00;;;1.47;;
14754;SDS011;7469;50.906;6.952;2023-04-15T09:03:42;1.30;;;1.13;;
14754;SDS011;7469;50.906;6.952;2023-04-15T09:06:11;1.50;;;1.23;;
14754;SDS011;7469;50.906;6.952;2023-04-15T09:08:39;1.53;;;1.17;;
14754;SDS011;7469;50.906;6.952;2023-04-15T09:11:08;2.30;;;1.53;;
14754;SDS011;7469;50.906;6.952;2023-04-15T09:13:37;1.60;;;1.50;;
14754;SDS011;7469;50.906;6.952;2023-04-15T09:16:06;1.97;;;1.30;;
14754;SDS011;7469;50.906;6.952;2023-04-15T09:18:35;2.00;;;1.53;;
14754;SDS011;7469;50.906;6.952;2023-04-15T09:21:04;2.20;;;1.70;;
14754;SDS011;7469;50.906;6.952;2023-04-15T09:23:34;1.67;;;1.50;;
14754;SDS011;7469;50.906;6.952;2023-04-15T09:26:02;1.43;;;1.13;;
14754;SDS011;7469;50.906;6.952;2023-04-15T09:28:32;2.33;;;1.67;;
14754;SDS011;7469;50.906;6.952;2023-04-15T09:31:07;2.90;;;1.50;;
14754;SDS011;7469;50.906;6.952;2023-04-15T09:33:36;3.53;;;1.60;;
14754;SDS011;7469;50.906;6.952;2023-04-15T09:36:22;1.57;;;1.47;;
14754;SDS011;7469;50.906;6.952;2023-04-15T09:38:55;1.67;;;1.47;;
14754;SDS011;7469;50.906;6.952;2023-04-15T09:41:24;3.07;;;1.67;;
14754;SDS011;7469;50.906;6.952;2023-04-15T09:43:53;1.67;;;1.30;;
14754;SDS011;7469;50.906;6.952;2023-04-15T09:46:38;1.87;;;1.60;;
14754;SDS011;7469;50.906;6.952;2023-04-15T09:49:07;3.53;;;1.63;;
14754;SDS011;7469;50.906;6.952;2023-04-15T09:51:36;1.70;;;1.60;;
14754;SDS011;7469;50.906;6.952;2023-04-15T09:54:04;1.80;;;1.70;;
14754;SDS011;7469;50.906;6.952;2023-04-15T09:56:33;2.60;;;1.70;;
14754;SDS011;7469;50.906;6.952;2023-04-15T09:59:05;3.37;;;1.73;;
14754;SDS011;7469;50.906;6.952;2023-04-15T10:01:33;4.23;;;2.10;;
14754;SDS011;7469;50.906;6.952;2023-04-15T10:04:02;2.47;;;1.70;;
14754;SDS011;7469;50.906;6.952;2023-04-15T10:06:32;1.50;;;1.40;;
14754;SDS011;7469;50.906;6.952;2023-04-15T10:09:00;1.20;;;1.20;;
14754;SDS011;7469;50.906;6.952;2023-04-15T10:11:28;1.83;;;1.60;;
14754;SDS011;7469;50.906;6.952;2023-04-15T10:13:58;2.50;;;1.90;;
14754;SDS011;7469;50.906;6.952;2023-04-15T10:16:27;2.43;;;1.53;;
14754;SDS011;7469;50.906;6.952;2023-04-15T10:19:00;3.87;;;1.80;;
14754;SDS011;7469;50.906;6.952;2023-04-15T10:21:29;2.00;;;1.80;;
14754;SDS011;7469;50.906;6.952;2023-04-15T10:23:57;3.23;;;2.23;;
14754;SDS011;7469;50.906;6.952;2023-04-15T10:26:27;1.80;;;1.70;;
14754;SDS011;7469;50.906;6.952;2023-04-15T10:28:56;2.67;;;2.10;;
14754;SDS011;7469;50.906;6.952;2023-04-15T10:31:25;2.80;;;2.00;;
14754;SDS011;7469;50.906;6.952;2023-04-15T10:33:55;2.03;;;1.83;;
14754;SDS011;7469;50.906;6.952;2023-04-15T10:36:24;2.27;;;2.07;;
14754;SDS011;7469;50.906;6.952;2023-04-15T10:38:52;3.50;;;1.87;;
14754;SDS011;7469;50.906;6.952;2023-04-15T10:41:21;3.33;;;2.07;;
14754;SDS011;7469;50.906;6.952;2023-04-15T10:43:50;2.50;;;2.30;;
14754;SDS011;7469;50.906;6.952;2023-04-15T10:46:23;3.50;;;2.17;;
14754;SDS011;7469;50.906;6.952;2023-04-15T10:49:07;2.50;;;1.80;;
14754;SDS011;7469;50.906;6.952;2023-04-15T10:51:37;3.03;;;2.10;;
14754;SDS011;7469;50.906;6.952;2023-04-15T10:54:08;1.90;;;1.80;;
14754;SDS011;7469;50.906;6.952;2023-04-15T10:56:40;3.30;;;2.20;;
14754;SDS011;7469;50.906;6.952;2023-04-15T10:59:09;1.80;;;1.70;;
14754;SDS011;7469;50.906;6.952;2023-04-15T11:01:50;2.70;;;2.30;;
14754;SDS011;7469;50.906;6.952;2023-04-15T11:07:37;1.83;;;1.67;;
14754;SDS011;7469;50.906;6.952;2023-04-15T11:13:26;1.73;;;1.30;;
14754;SDS011;7469;50.906;6.952;2023-04-15T11:15:56;2.00;;;1.80;;
14754;SDS011;7469;50.906;6.952;2023-04-15T11:18:28;1.70;;;1.60;;
14754;SDS011;7469;50.906;6.952;2023-04-15T11:21:00;3.17;;;1.73;;
14754;SDS011;7469;50.906;6.952;2023-04-15T11:23:30;1.70;;;1.60;;
14754;SDS011;7469;50.906;6.952;2023-04-15T11:26:01;2.90;;;1.90;;
14754;SDS011;7469;50.906;6.952;2023-04-15T11:28:34;1.80;;;1.70;;
14754;SDS011;7469;50.906;6.952;2023-04-15T11:31:05;1.73;;;1.60;;
14754;SDS011;7469;50.906;6.952;2023-04-15T11:33:35;2.40;;;1.40;;
14754;SDS011;7469;50.906;6.952;2023-04-15T11:36:05;1.33;;;1.27;;
14754;SDS011;7469;50.906;6.952;2023-04-15T11:38:33;1.77;;;1.67;;
14754;SDS011;7469;50.906;6.952;2023-04-15T11:41:03;1.97;;;1.53;;
14754;SDS011;7469;50.906;6.952;2023-04-15T11:43:31;2.00;;;1.80;;
14754;SDS011;7469;50.906;6.952;2023-04-15T11:46:01;1.60;;;1.50;;
14754;SDS011;7469;50.906;6.952;2023-04-15T11:48:30;2.03;;;1.77;;
14754;SDS011;7469;50.906;6.952;2023-04-15T11:51:00;1.70;;;1.50;;
14754;SDS011;7469;50.906;6.952;2023-04-15T11:53:36;2.93;;;1.50;;
14754;SDS011;7469;50.906;6.952;2023-04-15T11:56:07;1.87;;;1.60;;
14754;SDS011;7469;50.906;6.952;2023-04-15T11:58:37;1.57;;;1.47;;
14754;SDS011;7469;50.906;6.952;2023-04-15T12:01:05;1.63;;;1.50;;
14754;SDS011;7469;50.906;6.952;2023-04-15T12:03:37;2.53;;;1.50;;
14754;SDS011;7469;50.906;6.952;2023-04-15T12:06:10;1.77;;;1.67;;
14754;SDS011;7469;50.906;6.952;2023-04-15T12:11:43;1.60;;;1.50;;
14754;SDS011;7469;50.906;6.952;2023-04-15T12:14:15;2.13;;;2.00;;
14754;SDS011;7469;50.906;6.952;2023-04-15T12:16:48;2.03;;;1.93;;
14754;SDS011;7469;50.906;6.952;2023-04-15T12:19:21;2.00;;;1.90;;
14754;SDS011;7469;50.906;6.952;2023-04-15T12:21:52;2.27;;;2.07;;
14754;SDS011;7469;50.906;6.952;2023-04-15T12:24:23;2.00;;;1.90;;
14754;SDS011;7469;50.906;6.952;2023-04-15T12:26:52;2.10;;;1.90;;
14754;SDS011;7469;50.906;6.952;2023-04-15T12:29:24;2.40;;;2.20;;
14754;SDS011;7469;50.906;6.952;2023-04-15T12:31:53;2.57;;;2.37;;
14754;SDS011;7469;50.906;6.952;2023-04-15T12:34:26;2.40;;;2.20;;
14754;SDS011;7469;50.906;6.952;2023-04-15T12:36:55;2.90;;;2.50;;
14754;SDS011;7469;50.906;6.952;2023-04-15T12:39:26;2.50;;;2.30;;
14754;SDS011;7469;50.906;6.952;2023-04-15T12:41:56;1.97;;;1.87;;
14754;SDS011;7469;50.906;6.952;2023-04-15T12:44:24;2.40;;;2.20;;
14754;SDS011;7469;50.906;6.952;2023-04-15T12:46:53;3.20;;;2.10;;
14754;SDS011;7469;50.906;6.952;2023-04-15T12:49:22;2.30;;;2.10;;
14754;SDS011;7469;50.906;6.952;2023-04-15T12:51:51;2.37;;;2.23;;
14754;SDS011;7469;50.906;6.952;2023-04-15T12:54:22;2.90;;;2.30;;
14754;SDS011;7469;50.906;6.952;2023-04-15T12:56:51;2.20;;;2.10;;
14754;SDS011;7469;50.906;6.952;2023-04-15T12:59:20;2.87;;;2.67;;
14754;SDS011;7469;50.906;6.952;2023-04-15T13:01:50;3.57;;;2.83;;
14754;SDS011;7469;50.906;6.952;2023-04-15T13:04:19;3.80;;;3.40;;
14754;SDS011;7469;50.906;6.952;2023-04-15T13:06:47;2.90;;;2.70;;
14754;SDS011;7469;50.906;6.952;2023-04-15T13:09:16;3.00;;;2.80;;
14754;SDS011;7469;50.906;6.952;2023-04-15T13:11:43;3.60;;;2.73;;
14754;SDS011;7469;50.906;6.952;2023-04-15T13:14:13;2.77;;;2.57;;
14754;SDS011;7469;50.906;6.952;2023-04-15T13:16:41;3.57;;;2.47;;
14754;SDS011;7469;50.906;6.952;2023-04-15T13:19:09;2.37;;;2.17;;
14754;SDS011;7469;50.906;6.952;2023-04-15T13:21:37;3.67;;;2.37;;
14754;SDS011;7469;50.906;6.952;2023-04-15T13:24:05;2.90;;;2.67;;
14754;SDS011;7469;50.906;6.952;2023-04-15T13:26:33;2.50;;;2.30;;
14754;SDS011;7469;50.906;6.952;2023-04-15T13:29:01;2.10;;;1.90;;
14754;SDS011;7469;50.906;6.952;2023-04-15T13:31:31;2.50;;;2.30;;
14754;SDS011;7469;50.906;6.952;2023-04-15T13:33:59;2.20;;;1.97;;
14754;SDS011;7469;50.906;6.952;2023-04-15T13:36:27;2.47;;;2.27;;
14754;SDS011;7469;50.906;6.952;2023-04-15T13:38:55;2.57;;;2.13;;
14754;SDS011;7469;50.906;6.952;2023-04-15T13:41:23;2.10;;;1.90;;
14754;SDS011;7469;50.906;6.952;2023-04-15T13:43:51;2.93;;;2.47;;
14754;SDS011;7469;50.906;6.952;2023-04-15T13:46:19;2.60;;;2.40;;
14754;SDS011;7469;50.906;6.952;2023-04-15T13:48:49;4.07;;;3.00;;
14754;SDS011;7469;50.906;6.952;2023-04-15T13:51:17;3.03;;;2.50;;
14754;SDS011;7469;50.906;6.952;2023-04-15T13:53:45;2.50;;;2.30;;
14754;SDS011;7469;50.906;6.952;2023-04-15T13:56:13;3.43;;;2.80;;
14754;SDS011;7469;50.906;6.952;2023-04-15T13:58:41;2.70;;;2.50;;
14754;SDS011;7469;50.906;6.952;2023-04-15T14:01:09;3.93;;;2.80;;
14754;SDS011;7469;50.906;6.952;2023-04-15T14:03:37;3.43;;;2.60;;
14754;SDS011;7469;50.906;6.952;2023-04-15T14:06:06;2.57;;;2.30;;
14754;SDS011;7469;50.906;6.952;2023-04-15T14:08:34;2.47;;;2.27;;
14754;SDS011;7469;50.906;6.952;2023-04-15T14:11:02;2.40;;;2.20;;
14754;SDS011;7469;50.906;6.952;2023-04-15T14:13:30;3.97;;;2.47;;
14754;SDS011;7469;50.906;6.952;2023-04-15T14:15:58;2.43;;;1.90;;
14754;SDS011;7469;50.906;6.952;2023-04-15T14:18:26;3.43;;;2.10;;
14754;SDS011;7469;50.906;6.952;2023-04-15T14:20:56;2.67;;;2.30;;
14754;SDS011;7469;50.906;6.952;2023-04-15T14:23:25;3.30;;;2.13;;
14754;SDS011;7469;50.906;6.952;2023-04-15T14:25:54;2.90;;;2.40;;
14754;SDS011;7469;50.906;6.952;2023-04-15T14:28:22;2.60;;;2.30;;
14754;SDS011;7469;50.906;6.952;2023-04-15T14:30:51;2.00;;;1.80;;
14754;SDS011;7469;50.906;6.952;2023-04-15T14:33:19;2.13;;;2.00;;
14754;SDS011;7469;50.906;6.952;2023-04-15T14:35:48;3.50;;;2.30;;
14754;SDS011;7469;50.906;6.952;2023-04-15T14:38:16;3.57;;;2.50;;
14754;SDS011;7469;50.906;6.952;2023-04-15T14:40:45;2.50;;;2.30;;
14754;SDS011;7469;50.906;6.952;2023-04-15T14:43:13;2.50;;;2.30;;
14754;SDS011;7469;50.906;6.952;2023-04-15T14:45:41;3.53;;;2.43;;
14754;SDS011;7469;50.906;6.952;2023-04-15T14:48:10;2.60;;;2.40;;
14754;SDS011;7469;50.906;6.952;2023-04-15T14:50:39;3.10;;;2.80;;
14754;SDS011;7469;50.906;6.952;2023-04-15T14:53:07;3.17;;;2.83;;
14754;SDS011;7469;50.906;6.952;2023-04-15T14:55:35;4.33;;;3.93;;
14754;SDS011;7469;50.906;6.952;2023-04-15T14:58:05;3.73;;;3.43;;
14754;SDS011;7469;50.906;6.952;2023-04-15T15:00:34;6.17;;;4.20;;
14754;SDS011;7469;50.906;6.952;2023-04-15T15:03:04;5.43;;;3.90;;
14754;SDS011;7469;50.906;6.952;2023-04-15T15:05:38;4.67;;;3.97;;
14754;SDS011;7469;50.906;6.952;2023-04-15T15:08:06;5.20;;;3.53;;
14754;SDS011;7469;50.906;6.952;2023-04-15T15:10:35;4.53;;;3.43;;
14754;SDS011;7469;50.906;6.952;2023-04-15T15:13:16;5.93;;;3.37;;
14754;SDS011;7469;50.906;6.952;2023-04-15T15:15:45;3.90;;;3.10;;
14754;SDS011;7469;50.906;6.952;2023-04-15T15:18:15;4.77;;;3.63;;
14754;SDS011;7469;50.906;6.952;2023-04-15T15:20:44;4.33;;;3.53;;